Time;durP1;ratioP1;P1;durP2;ratioP2;P2;SDS_P1;SDS_P2;PMS_P1;PMS_P2;Temp;Humidity;BMP_temperature;BMP_pressure;BME280_temperature;BME280_humidity;BME280_pressure;Samples;Min_cycle;Max_cycle;Signal;HPM_P1;HPM_P2
2021/09/09 00:00:18;;;;;;;4.23;3.77;;;;;;;;;;5120693;28;20213;-66
2021/09/09 00:02:46;;;;;;;4.77;3.60;;;;;;;;;;5119764;28;20291;-67
2021/09/09 00:05:14;;;;;;;4.70;3.60;;;;;;;;;;5120551;28;20231;-65
2021/09/09 00:07:42;;;;;;;6.80;3.83;;;;;;;;;;5120331;28;20231;-66
2021/09/09 00:10:10;;;;;;;4.70;3.50;;;;;;;;;;5120222;28;20204;-68
2021/09/09 00:12:41;;;;;;;6.40;3.53;;;;;;;;;;5120398;28;20212;-66
2021/09/09 00:15:11;;;;;;;5.13;4.03;;;;;;;;;;5120381;27;20226;-65
2021/09/09 00:17:40;;;;;;;6.70;3.90;;;;;;;;;;5119537;27;20230;-66
2021/09/09 00:20:09;;;;;;;5.53;3.83;;;;;;;;;;5120008;28;20211;-65
2021/09/09 00:22:38;;;;;;;5.43;4.10;;;;;;;;;;5120092;28;20237;-65
2021/09/09 00:25:06;;;;;;;5.00;4.37;;;;;;;;;;5119146;28;20225;-65
2021/09/09 00:27:34;;;;;;;6.73;4.07;;;;;;;;;;5098454;28;20549;-65
2021/09/09 00:30:06;;;;;;;4.63;3.80;;;;;;;;;;5099242;28;20656;-65
2021/09/09 00:32:36;;;;;;;5.97;4.27;;;;;;;;;;5099448;28;20206;-67
2021/09/09 00:35:04;;;;;;;5.77;3.90;;;;;;;;;;5099658;28;20242;-65
2021/09/09 00:37:32;;;;;;;7.53;3.93;;;;;;;;;;5099344;28;20205;-64
2021/09/09 00:40:00;;;;;;;4.90;3.63;;;;;;;;;;5099519;28;20213;-64
2021/09/09 00:42:28;;;;;;;4.53;3.73;;;;;;;;;;5099589;28;20216;-64
2021/09/09 00:44:56;;;;;;;7.30;4.57;;;;;;;;;;5099386;28;20226;-64
2021/09/09 00:47:24;;;;;;;7.00;3.80;;;;;;;;;;5099320;28;20205;-64
2021/09/09 00:49:53;;;;;;;4.80;3.90;;;;;;;;;;5102654;28;20222;-64
2021/09/09 00:52:21;;;;;;;5.90;3.80;;;;;;;;;;5099069;28;20240;-64
2021/09/09 00:54:49;;;;;;;6.20;4.00;;;;;;;;;;5098846;28;20225;-64
2021/09/09 00:57:17;;;;;;;5.27;4.10;;;;;;;;;;5100929;28;20198;-65
2021/09/09 00:59:46;;;;;;;6.33;4.00;;;;;;;;;;5109203;28;20203;-65
2021/09/09 01:02:14;;;;;;;8.30;4.07;;;;;;;;;;5107058;28;20276;-65
2021/09/09 01:04:42;;;;;;;5.00;4.07;;;;;;;;;;5108353;28;20225;-65
2021/09/09 01:07:12;;;;;;;6.97;4.20;;;;;;;;;;5108703;28;20608;-65
2021/09/09 01:09:40;;;;;;;5.07;4.07;;;;;;;;;;5108213;28;20231;-65
2021/09/09 01:12:08;;;;;;;5.63;4.30;;;;;;;;;;5109906;28;20197;-65
2021/09/09 01:14:36;;;;;;;4.93;3.80;;;;;;;;;;5108566;28;20220;-64
2021/09/09 01:17:04;;;;;;;6.20;4.30;;;;;;;;;;5116652;28;20211;-64
2021/09/09 01:19:32;;;;;;;6.80;4.60;;;;;;;;;;5118080;28;20199;-64
2021/09/09 01:22:00;;;;;;;8.80;4.30;;;;;;;;;;5117856;28;20218;-65
2021/09/09 01:24:30;;;;;;;6.43;4.50;;;;;;;;;;5111251;28;20236;-64
2021/09/09 01:27:00;;;;;;;8.67;5.80;;;;;;;;;;5108271;28;20201;-63
2021/09/09 01:29:30;;;;;;;15.63;9.77;;;;;;;;;;5115820;27;20238;-64
2021/09/09 01:31:58;;;;;;;10.93;7.53;;;;;;;;;;5117847;28;20205;-64
2021/09/09 01:34:27;;;;;;;10.77;7.03;;;;;;;;;;5118808;28;20318;-64
2021/09/09 01:36:55;;;;;;;8.90;5.50;;;;;;;;;;5118347;28;20211;-64
2021/09/09 01:39:24;;;;;;;7.97;5.30;;;;;;;;;;5118423;28;20659;-64
2021/09/09 01:41:54;;;;;;;7.13;4.97;;;;;;;;;;5118192;28;20578;-63
2021/09/09 01:44:22;;;;;;;6.37;4.17;;;;;;;;;;5118332;28;20224;-63
2021/09/09 01:46:51;;;;;;;6.07;4.13;;;;;;;;;;5118226;28;20219;-63
2021/09/09 01:49:19;;;;;;;6.73;4.37;;;;;;;;;;5118245;27;20320;-64
2021/09/09 01:51:48;;;;;;;8.67;4.13;;;;;;;;;;5102849;28;20582;-64
2021/09/09 01:54:16;;;;;;;8.63;4.53;;;;;;;;;;5102458;28;20592;-63
2021/09/09 01:56:44;;;;;;;6.13;3.80;;;;;;;;;;5100348;28;20246;-64
2021/09/09 01:59:13;;;;;;;5.50;4.27;;;;;;;;;;5112449;28;20201;-64
2021/09/09 02:01:41;;;;;;;5.93;4.00;;;;;;;;;;5118301;28;20234;-64
2021/09/09 02:04:10;;;;;;;4.67;4.10;;;;;;;;;;5118530;28;20229;-65
2021/09/09 02:06:38;;;;;;;5.27;3.97;;;;;;;;;;5118704;28;20274;-64
2021/09/09 02:09:05;;;;;;;9.67;4.27;;;;;;;;;;5118560;28;20228;-63
2021/09/09 02:11:33;;;;;;;4.80;4.23;;;;;;;;;;5118694;28;20211;-63
2021/09/09 02:14:01;;;;;;;5.57;4.33;;;;;;;;;;5118235;28;20236;-63
2021/09/09 02:16:31;;;;;;;6.17;3.97;;;;;;;;;;5117871;28;20287;-64
2021/09/09 02:18:59;;;;;;;5.03;4.13;;;;;;;;;;5118211;28;20710;-63
2021/09/09 02:21:27;;;;;;;4.73;3.80;;;;;;;;;;5118065;28;20231;-63
2021/09/09 02:23:55;;;;;;;5.07;3.77;;;;;;;;;;5117992;28;20307;-63
2021/09/09 02:26:23;;;;;;;8.30;4.33;;;;;;;;;;5107449;28;20265;-64
2021/09/09 02:28:51;;;;;;;6.10;4.07;;;;;;;;;;5097741;28;20209;-63
2021/09/09 02:31:19;;;;;;;5.53;4.00;;;;;;;;;;5097384;28;20686;-64
2021/09/09 02:33:49;;;;;;;5.13;4.27;;;;;;;;;;5097574;28;20232;-63
2021/09/09 02:36:17;;;;;;;5.63;3.53;;;;;;;;;;5097503;28;20217;-63
2021/09/09 02:38:44;;;;;;;4.60;4.10;;;;;;;;;;5097552;28;20291;-63
2021/09/09 02:41:12;;;;;;;5.50;4.40;;;;;;;;;;5097411;28;20216;-63
2021/09/09 02:43:40;;;;;;;6.80;4.13;;;;;;;;;;5097789;28;20303;-63
2021/09/09 02:46:08;;;;;;;6.50;4.83;;;;;;;;;;5097229;28;20207;-63
2021/09/09 02:48:36;;;;;;;5.67;3.97;;;;;;;;;;5097518;28;20246;-63
2021/09/09 02:51:06;;;;;;;5.37;4.27;;;;;;;;;;5104490;28;20225;-62
2021/09/09 02:53:34;;;;;;;9.10;4.37;;;;;;;;;;5101435;28;20678;-64
2021/09/09 02:56:02;;;;;;;7.27;4.20;;;;;;;;;;5101328;28;20314;-62
2021/09/09 02:58:30;;;;;;;7.60;4.30;;;;;;;;;;5110064;28;20211;-63
2021/09/09 03:00:58;;;;;;;5.53;3.97;;;;;;;;;;5121442;28;20235;-63
2021/09/09 03:03:26;;;;;;;5.03;3.93;;;;;;;;;;5121522;28;20239;-64
2021/09/09 03:05:54;;;;;;;5.77;3.87;;;;;;;;;;5121668;28;20209;-63
2021/09/09 03:08:23;;;;;;;6.03;3.73;;;;;;;;;;5121696;28;20296;-64
2021/09/09 03:10:51;;;;;;;4.73;4.23;;;;;;;;;;5121566;28;20243;-64
2021/09/09 03:13:19;;;;;;;5.77;4.23;;;;;;;;;;5121342;27;20576;-63
2021/09/09 03:15:47;;;;;;;5.37;4.03;;;;;;;;;;5120965;28;20339;-64
2021/09/09 03:18:15;;;;;;;6.77;4.47;;;;;;;;;;5121196;28;20215;-64
2021/09/09 03:20:43;;;;;;;6.83;4.10;;;;;;;;;;5121147;28;20207;-64
2021/09/09 03:23:11;;;;;;;4.90;4.07;;;;;;;;;;5121456;28;20201;-64
2021/09/09 03:25:41;;;;;;;5.93;4.20;;;;;;;;;;5115821;28;20285;-63
2021/09/09 03:28:09;;;;;;;6.23;4.00;;;;;;;;;;5100959;28;20205;-63
2021/09/09 03:30:37;;;;;;;7.53;4.60;;;;;;;;;;5100288;28;20237;-64
2021/09/09 03:33:05;;;;;;;5.00;4.37;;;;;;;;;;5100783;28;20205;-63
2021/09/09 03:35:33;;;;;;;4.83;4.13;;;;;;;;;;5100512;28;20226;-64
2021/09/09 03:38:01;;;;;;;7.77;4.60;;;;;;;;;;5100746;28;20213;-64
2021/09/09 03:40:29;;;;;;;6.63;4.30;;;;;;;;;;5100748;28;20209;-64
2021/09/09 03:42:58;;;;;;;8.97;4.83;;;;;;;;;;5100558;28;20767;-64
2021/09/09 03:45:26;;;;;;;4.63;3.60;;;;;;;;;;5100184;28;20592;-64
2021/09/09 03:47:54;;;;;;;7.87;4.33;;;;;;;;;;5100267;28;20294;-64
2021/09/09 03:50:22;;;;;;;5.90;3.77;;;;;;;;;;5103975;28;20233;-64
2021/09/09 03:52:50;;;;;;;9.37;4.27;;;;;;;;;;5100318;28;20738;-63
2021/09/09 03:55:18;;;;;;;7.63;4.30;;;;;;;;;;5100277;28;20226;-64
2021/09/09 03:57:47;;;;;;;6.67;4.57;;;;;;;;;;5103230;28;20239;-64
2021/09/09 04:00:17;;;;;;;7.80;4.50;;;;;;;;;;5120609;28;20210;-64
2021/09/09 04:02:45;;;;;;;5.50;4.70;;;;;;;;;;5120092;28;20295;-64
2021/09/09 04:05:14;;;;;;;7.43;4.23;;;;;;;;;;5120527;28;20226;-64
2021/09/09 04:07:42;;;;;;;8.80;5.27;;;;;;;;;;5120175;28;20210;-63
2021/09/09 04:10:10;;;;;;;5.93;4.13;;;;;;;;;;5117810;28;20643;-63
2021/09/09 04:12:39;;;;;;;6.43;4.73;;;;;;;;;;5120254;27;20236;-64
2021/09/09 04:15:07;;;;;;;6.50;4.93;;;;;;;;;;5120540;28;20768;-64
2021/09/09 04:17:37;;;;;;;8.27;4.33;;;;;;;;;;5119945;28;20201;-64
2021/09/09 04:20:05;;;;;;;7.67;4.37;;;;;;;;;;5120337;28;20201;-64
2021/09/09 04:22:34;;;;;;;8.53;4.90;;;;;;;;;;5120240;28;20234;-63
2021/09/09 04:25:05;;;;;;;6.40;3.90;;;;;;;;;;5119627;28;20227;-63
2021/09/09 04:27:33;;;;;;;7.90;4.60;;;;;;;;;;5119932;28;20729;-63
2021/09/09 04:30:01;;;;;;;5.90;4.97;;;;;;;;;;5119497;27;20241;-63
2021/09/09 04:32:29;;;;;;;5.93;4.80;;;;;;;;;;5119618;28;20203;-64
2021/09/09 04:34:58;;;;;;;7.23;5.30;;;;;;;;;;5119721;28;20227;-63
2021/09/09 04:37:26;;;;;;;7.53;4.33;;;;;;;;;;5117655;28;20211;-63
2021/09/09 04:39:54;;;;;;;6.80;4.80;;;;;;;;;;5105682;27;20614;-64
2021/09/09 04:42:22;;;;;;;10.03;5.30;;;;;;;;;;5106192;28;20215;-64
2021/09/09 04:44:50;;;;;;;7.73;5.43;;;;;;;;;;5104574;28;20582;-64
2021/09/09 04:47:18;;;;;;;8.73;4.50;;;;;;;;;;5105983;28;20209;-63
2021/09/09 04:49:46;;;;;;;7.57;5.00;;;;;;;;;;5109775;28;20217;-63
2021/09/09 04:52:16;;;;;;;7.47;4.73;;;;;;;;;;5107491;28;20293;-64
2021/09/09 04:54:43;;;;;;;7.03;4.23;;;;;;;;;;5111339;28;20317;-64
2021/09/09 04:57:12;;;;;;;6.40;4.73;;;;;;;;;;5108811;28;20205;-63
2021/09/09 04:59:41;;;;;;;5.67;4.20;;;;;;;;;;5105128;28;20573;-63
2021/09/09 05:02:08;;;;;;;7.93;4.50;;;;;;;;;;5102273;28;20222;-63
2021/09/09 05:04:38;;;;;;;5.77;3.77;;;;;;;;;;5109011;28;20221;-64
2021/09/09 05:07:06;;;;;;;6.53;4.77;;;;;;;;;;5105992;28;20561;-63
2021/09/09 05:09:36;;;;;;;5.90;4.17;;;;;;;;;;5103175;28;20196;-64
2021/09/09 05:12:04;;;;;;;4.90;4.40;;;;;;;;;;5101995;28;20318;-64
2021/09/09 05:14:32;;;;;;;7.80;4.80;;;;;;;;;;5104089;28;20222;-64
2021/09/09 05:17:00;;;;;;;5.03;4.53;;;;;;;;;;5104285;28;20199;-63
2021/09/09 05:19:28;;;;;;;6.73;5.10;;;;;;;;;;5105999;28;20209;-63
2021/09/09 05:21:56;;;;;;;5.83;4.90;;;;;;;;;;5104179;28;20208;-63
2021/09/09 05:24:25;;;;;;;5.90;4.50;;;;;;;;;;5099586;28;20228;-63
2021/09/09 05:26:55;;;;;;;6.50;4.33;;;;;;;;;;5106246;28;20236;-63
2021/09/09 05:29:23;;;;;;;6.23;4.47;;;;;;;;;;5096926;28;20238;-64
2021/09/09 05:31:51;;;;;;;5.60;4.90;;;;;;;;;;5096757;28;20581;-64
2021/09/09 05:34:19;;;;;;;6.70;4.40;;;;;;;;;;5097001;28;20245;-64
2021/09/09 05:36:47;;;;;;;12.10;4.93;;;;;;;;;;5104349;28;20557;-64
2021/09/09 05:39:15;;;;;;;5.97;4.50;;;;;;;;;;5097210;28;20200;-64
2021/09/09 05:41:43;;;;;;;6.73;4.60;;;;;;;;;;5097186;28;20290;-64
2021/09/09 05:44:13;;;;;;;7.20;4.80;;;;;;;;;;5097634;28;20228;-63
2021/09/09 05:46:41;;;;;;;5.13;4.10;;;;;;;;;;5097252;28;20203;-63
2021/09/09 05:49:09;;;;;;;5.70;4.67;;;;;;;;;;5099430;28;20208;-63
2021/09/09 05:51:36;;;;;;;7.63;4.80;;;;;;;;;;5107469;28;20222;-63
2021/09/09 05:54:04;;;;;;;6.73;4.87;;;;;;;;;;5104962;28;20219;-63
2021/09/09 05:56:32;;;;;;;6.73;5.10;;;;;;;;;;5103859;28;20213;-63
2021/09/09 05:59:01;;;;;;;8.77;5.00;;;;;;;;;;5103909;28;20285;-63
2021/09/09 06:01:31;;;;;;;9.63;5.00;;;;;;;;;;5100439;28;20206;-63
2021/09/09 06:04:00;;;;;;;9.00;4.93;;;;;;;;;;5105989;28;20271;-63
2021/09/09 06:06:30;;;;;;;6.30;4.70;;;;;;;;;;5103132;28;20610;-63
2021/09/09 06:08:58;;;;;;;9.97;5.47;;;;;;;;;;5102918;28;20223;-63
2021/09/09 06:11:26;;;;;;;8.37;5.83;;;;;;;;;;5103431;28;20232;-63
2021/09/09 06:13:54;;;;;;;7.47;5.43;;;;;;;;;;5103060;28;20746;-63
2021/09/09 06:16:23;;;;;;;7.57;5.00;;;;;;;;;;5104603;28;20244;-62
2021/09/09 06:18:52;;;;;;;9.70;5.37;;;;;;;;;;5104664;28;20545;-63
2021/09/09 06:21:20;;;;;;;9.43;5.77;;;;;;;;;;5111629;28;20204;-63
2021/09/09 06:23:48;;;;;;;12.63;6.20;;;;;;;;;;5106358;28;20223;-63
2021/09/09 06:26:17;;;;;;;12.00;5.57;;;;;;;;;;5114588;28;20238;-62
2021/09/09 06:28:45;;;;;;;10.27;5.30;;;;;;;;;;5109742;28;20286;-63
2021/09/09 06:31:14;;;;;;;9.97;6.27;;;;;;;;;;5109039;28;20245;-63
2021/09/09 06:33:42;;;;;;;9.20;5.83;;;;;;;;;;5107233;28;20241;-63
2021/09/09 06:36:12;;;;;;;18.80;5.57;;;;;;;;;;5114890;28;20205;-63
2021/09/09 06:38:40;;;;;;;11.73;5.53;;;;;;;;;;5101275;28;20221;-63
2021/09/09 06:41:08;;;;;;;7.10;5.17;;;;;;;;;;5101087;28;20224;-64
2021/09/09 06:43:36;;;;;;;9.40;5.10;;;;;;;;;;5101521;28;20216;-63
2021/09/09 06:46:04;;;;;;;6.90;4.70;;;;;;;;;;5100753;28;20222;-63
2021/09/09 06:48:33;;;;;;;8.93;5.37;;;;;;;;;;5101312;28;20207;-63
2021/09/09 06:51:02;;;;;;;13.13;5.27;;;;;;;;;;5115509;28;20211;-64
2021/09/09 06:53:32;;;;;;;10.67;5.77;;;;;;;;;;5116954;28;20260;-63
2021/09/09 06:56:00;;;;;;;15.07;5.57;;;;;;;;;;5108106;28;20674;-63
2021/09/09 06:58:28;;;;;;;11.97;5.40;;;;;;;;;;5104095;28;20199;-63
2021/09/09 07:00:56;;;;;;;11.47;5.33;;;;;;;;;;5109562;28;20259;-63
2021/09/09 07:03:29;;;;;;;9.97;6.03;;;;;;;;;;5105446;28;20231;-63
2021/09/09 07:05:58;;;;;;;10.73;5.90;;;;;;;;;;5107981;28;20759;-63
2021/09/09 07:08:26;;;;;;;10.97;5.70;;;;;;;;;;5105703;27;20215;-63
2021/09/09 07:10:56;;;;;;;8.90;6.27;;;;;;;;;;5107912;28;20215;-63
2021/09/09 07:13:28;;;;;;;8.17;6.10;;;;;;;;;;5113768;28;20309;-63
2021/09/09 07:15:57;;;;;;;8.73;6.40;;;;;;;;;;5110040;28;20202;-63
2021/09/09 07:18:25;;;;;;;9.07;5.93;;;;;;;;;;5105896;28;20206;-64
2021/09/09 07:20:53;;;;;;;11.80;6.10;;;;;;;;;;5112705;28;20221;-63
2021/09/09 07:23:21;;;;;;;10.23;6.17;;;;;;;;;;5110912;28;20206;-63
2021/09/09 07:25:49;;;;;;;9.53;5.87;;;;;;;;;;5110413;28;20211;-63
2021/09/09 07:28:19;;;;;;;7.80;6.00;;;;;;;;;;5107397;28;20206;-63
2021/09/09 07:30:47;;;;;;;8.57;6.47;;;;;;;;;;5104669;28;20239;-63
2021/09/09 07:33:16;;;;;;;17.97;12.07;;;;;;;;;;5104810;28;20233;-63
2021/09/09 07:35:44;;;;;;;10.87;6.80;;;;;;;;;;5113840;28;20222;-63
2021/09/09 07:38:12;;;;;;;8.23;6.40;;;;;;;;;;5108025;28;20218;-63
2021/09/09 07:40:40;;;;;;;13.40;6.93;;;;;;;;;;5106159;28;20673;-63
2021/09/09 07:43:09;;;;;;;9.17;6.13;;;;;;;;;;5110665;28;20201;-63
2021/09/09 07:45:39;;;;;;;7.63;5.93;;;;;;;;;;5105496;28;20235;-63
2021/09/09 07:48:07;;;;;;;7.50;6.20;;;;;;;;;;5109233;27;20217;-63
2021/09/09 07:50:35;;;;;;;12.77;7.03;;;;;;;;;;5111181;28;20570;-64
2021/09/09 07:53:04;;;;;;;9.73;5.70;;;;;;;;;;5111837;28;20229;-63
2021/09/09 07:55:32;;;;;;;8.27;6.00;;;;;;;;;;5111907;28;20237;-62
2021/09/09 07:58:00;;;;;;;8.00;5.90;;;;;;;;;;5111337;28;20235;-64
2021/09/09 08:00:28;;;;;;;9.10;7.17;;;;;;;;;;5104640;28;20235;-62
2021/09/09 08:02:58;;;;;;;12.20;6.77;;;;;;;;;;5104728;28;20212;-63
2021/09/09 08:05:26;;;;;;;11.03;6.47;;;;;;;;;;5103954;28;20227;-63
2021/09/09 08:07:54;;;;;;;18.03;7.17;;;;;;;;;;5115195;28;20208;-60
2021/09/09 08:10:23;;;;;;;12.17;7.50;;;;;;;;;;5118236;28;20221;-61
2021/09/09 08:12:51;;;;;;;11.27;5.87;;;;;;;;;;5115889;28;20235;-61
2021/09/09 08:15:19;;;;;;;9.40;5.63;;;;;;;;;;5117265;28;20696;-61
2021/09/09 08:17:47;;;;;;;9.27;5.63;;;;;;;;;;5114214;28;20213;-61
2021/09/09 08:20:17;;;;;;;11.47;5.20;;;;;;;;;;5103586;28;20216;-61
2021/09/09 08:22:45;;;;;;;7.23;5.40;;;;;;;;;;5106881;28;20201;-61
2021/09/09 08:25:13;;;;;;;7.00;5.00;;;;;;;;;;5104082;27;20251;-61
2021/09/09 08:27:41;;;;;;;9.07;5.03;;;;;;;;;;5106399;28;20206;-60
2021/09/09 08:30:09;;;;;;;9.00;6.03;;;;;;;;;;5105600;28;20250;-61
2021/09/09 08:32:38;;;;;;;9.37;6.53;;;;;;;;;;5107655;28;20227;-61
2021/09/09 08:35:07;;;;;;;9.97;6.40;;;;;;;;;;5106478;28;20228;-61
2021/09/09 08:37:36;;;;;;;8.00;5.47;;;;;;;;;;5108653;28;20263;-62
2021/09/09 08:40:07;;;;;;;9.67;5.40;;;;;;;;;;5109919;28;20216;-61
2021/09/09 08:42:38;;;;;;;10.13;5.23;;;;;;;;;;5098856;28;20686;-61
2021/09/09 08:45:06;;;;;;;11.23;4.93;;;;;;;;;;5099104;28;20321;-61
2021/09/09 08:47:35;;;;;;;11.30;6.63;;;;;;;;;;5097842;28;20212;-61
2021/09/09 08:50:03;;;;;;;12.07;5.70;;;;;;;;;;5102617;28;20214;-61
2021/09/09 08:52:32;;;;;;;7.83;5.17;;;;;;;;;;5108555;28;20675;-62
2021/09/09 08:55:02;;;;;;;10.00;5.10;;;;;;;;;;5112993;28;20253;-62
2021/09/09 08:57:32;;;;;;;8.30;5.73;;;;;;;;;;5101266;28;20235;-62
2021/09/09 09:00:00;;;;;;;9.83;5.43;;;;;;;;;;5105814;28;20657;-61
2021/09/09 09:02:31;;;;;;;8.00;5.60;;;;;;;;;;5100436;28;20235;-61
2021/09/09 09:05:02;;;;;;;9.00;5.53;;;;;;;;;;5101504;28;20636;-62
2021/09/09 09:07:31;;;;;;;14.07;5.40;;;;;;;;;;5102542;28;20681;-61
2021/09/09 09:10:03;;;;;;;9.37;5.53;;;;;;;;;;5105316;28;20238;-61
2021/09/09 09:12:39;;;;;;;11.20;5.03;;;;;;;;;;5111758;28;20306;-62
2021/09/09 09:15:11;;;;;;;7.27;5.03;;;;;;;;;;5111546;28;20230;-62
2021/09/09 09:17:52;;;;;;;6.70;4.93;;;;;;;;;;5112110;28;20219;-62
2021/09/09 09:20:21;;;;;;;6.07;4.93;;;;;;;;;;5114090;28;20235;-61
2021/09/09 09:22:49;;;;;;;11.63;4.60;;;;;;;;;;5110297;28;20201;-62
2021/09/09 09:25:19;;;;;;;6.20;5.07;;;;;;;;;;5113183;28;20288;-61
2021/09/09 09:27:48;;;;;;;5.33;4.70;;;;;;;;;;5101754;28;20243;-61
2021/09/09 09:30:16;;;;;;;7.23;4.63;;;;;;;;;;5110514;28;20241;-64
2021/09/09 09:32:50;;;;;;;11.17;5.30;;;;;;;;;;5105805;28;20228;-64
2021/09/09 09:35:19;;;;;;;10.77;5.60;;;;;;;;;;5107315;28;20589;-62
2021/09/09 09:37:53;;;;;;;12.47;5.00;;;;;;;;;;5111187;28;20770;-63
2021/09/09 09:40:27;;;;;;;13.53;6.17;;;;;;;;;;5109460;28;20780;-64
2021/09/09 09:42:59;;;;;;;8.50;5.30;;;;;;;;;;5112459;28;20228;-64
2021/09/09 09:45:27;;;;;;;11.07;5.73;;;;;;;;;;5103276;28;20232;-63
2021/09/09 09:47:55;;;;;;;10.70;5.93;;;;;;;;;;5101479;28;20685;-64
2021/09/09 09:50:23;;;;;;;10.63;6.53;;;;;;;;;;5105598;28;20198;-64
2021/09/09 09:53:11;;;;;;;9.03;6.30;;;;;;;;;;5103235;28;20213;-64
2021/09/09 09:55:42;;;;;;;12.27;5.93;;;;;;;;;;5100826;28;20579;-64
2021/09/09 09:58:10;;;;;;;7.20;5.67;;;;;;;;;;5104918;28;20204;-64
2021/09/09 10:00:38;;;;;;;8.33;5.50;;;;;;;;;;5098980;28;20200;-64
2021/09/09 10:03:07;;;;;;;9.53;5.13;;;;;;;;;;5101625;28;20197;-64
2021/09/09 10:05:36;;;;;;;5.83;5.10;;;;;;;;;;5105697;28;20312;-64
2021/09/09 10:08:05;;;;;;;5.97;4.83;;;;;;;;;;5103647;28;20209;-64
2021/09/09 10:10:33;;;;;;;5.63;5.00;;;;;;;;;;5096513;28;20201;-65
2021/09/09 10:13:03;;;;;;;10.80;5.40;;;;;;;;;;5097202;28;20240;-64
2021/09/09 10:15:35;;;;;;;6.13;5.33;;;;;;;;;;5107786;28;20221;-63
2021/09/09 10:18:04;;;;;;;7.67;5.20;;;;;;;;;;5105583;28;20268;-63
2021/09/09 10:20:33;;;;;;;8.17;5.47;;;;;;;;;;5101452;28;20233;-63
2021/09/09 10:23:03;;;;;;;6.57;5.07;;;;;;;;;;5102514;28;20204;-64
2021/09/09 10:25:41;;;;;;;8.43;4.10;;;;;;;;;;5105398;28;20642;-64
2021/09/09 10:28:27;;;;;;;4.60;4.20;;;;;;;;;;5103563;28;20648;-65
2021/09/09 10:31:04;;;;;;;5.10;3.97;;;;;;;;;;5094479;28;20233;-64
2021/09/09 10:33:32;;;;;;;5.43;3.87;;;;;;;;;;5109655;28;20259;-64
2021/09/09 10:36:00;;;;;;;7.73;4.03;;;;;;;;;;5110330;28;20222;-64
2021/09/09 10:38:30;;;;;;;5.70;3.73;;;;;;;;;;5110330;28;20284;-64
2021/09/09 10:40:59;;;;;;;5.77;3.80;;;;;;;;;;5101852;28;20236;-65
2021/09/09 10:43:47;;;;;;;3.70;3.40;;;;;;;;;;5103487;28;20288;-64
2021/09/09 10:46:17;;;;;;;3.57;3.10;;;;;;;;;;5101317;28;20560;-64
2021/09/09 10:48:47;;;;;;;6.17;3.27;;;;;;;;;;5103755;28;20199;-64
2021/09/09 10:51:16;;;;;;;6.17;3.97;;;;;;;;;;5104579;28;20208;-65
2021/09/09 10:53:48;;;;;;;5.87;4.00;;;;;;;;;;5107099;28;20231;-65
2021/09/09 10:56:17;;;;;;;3.50;3.20;;;;;;;;;;5101854;28;20206;-65
2021/09/09 10:58:45;;;;;;;4.07;3.67;;;;;;;;;;5107990;28;20200;-64
2021/09/09 11:01:14;;;;;;;6.53;4.10;;;;;;;;;;5100103;28;20208;-64
2021/09/09 11:03:44;;;;;;;3.57;3.27;;;;;;;;;;5110660;28;20227;-64
2021/09/09 11:06:14;;;;;;;4.33;3.93;;;;;;;;;;5109558;28;20223;-64
2021/09/09 11:08:43;;;;;;;5.37;3.63;;;;;;;;;;5103710;28;20713;-64
2021/09/09 11:11:14;;;;;;;3.87;3.50;;;;;;;;;;5104242;28;20211;-64
2021/09/09 11:13:42;;;;;;;5.83;3.80;;;;;;;;;;5099135;28;20223;-64
2021/09/09 11:16:20;;;;;;;3.30;3.00;;;;;;;;;;5099476;28;20226;-64
2021/09/09 11:18:50;;;;;;;4.83;3.30;;;;;;;;;;5114883;28;20659;-65
2021/09/09 11:21:20;;;;;;;4.00;3.70;;;;;;;;;;5113411;28;20206;-65
2021/09/09 11:23:48;;;;;;;3.40;2.97;;;;;;;;;;5104612;28;20305;-65
2021/09/09 11:26:17;;;;;;;5.90;3.17;;;;;;;;;;5106432;28;20201;-65
2021/09/09 11:28:47;;;;;;;4.07;3.30;;;;;;;;;;5106652;28;20226;-64
2021/09/09 11:31:17;;;;;;;3.30;3.00;;;;;;;;;;5113405;28;20765;-64
2021/09/09 11:33:54;;;;;;;3.73;2.90;;;;;;;;;;5099433;28;20229;-64
2021/09/09 11:36:23;;;;;;;3.27;2.97;;;;;;;;;;5100055;28;20292;-65
2021/09/09 11:38:51;;;;;;;3.03;2.83;;;;;;;;;;5099971;28;20213;-65
2021/09/09 11:41:19;;;;;;;5.87;3.20;;;;;;;;;;5108554;28;20204;-64
2021/09/09 11:43:51;;;;;;;3.83;2.87;;;;;;;;;;5106149;28;20243;-64
2021/09/09 11:46:28;;;;;;;4.73;3.30;;;;;;;;;;5109633;28;20265;-65
2021/09/09 11:48:59;;;;;;;3.30;2.90;;;;;;;;;;5114982;28;20301;-65
2021/09/09 11:51:30;;;;;;;3.87;3.57;;;;;;;;;;5110187;28;20719;-64
2021/09/09 11:53:58;;;;;;;4.37;3.00;;;;;;;;;;5105662;28;20235;-64
2021/09/09 11:56:26;;;;;;;4.57;3.37;;;;;;;;;;5107714;28;20212;-64
2021/09/09 11:58:55;;;;;;;3.57;3.27;;;;;;;;;;5112190;28;20202;-64
2021/09/09 12:01:23;;;;;;;4.10;3.80;;;;;;;;;;5106658;28;20280;-64
2021/09/09 12:03:51;;;;;;;4.90;3.70;;;;;;;;;;5104736;28;20265;-65
2021/09/09 12:06:22;;;;;;;5.53;3.47;;;;;;;;;;5106277;28;20607;-64
2021/09/09 12:08:50;;;;;;;3.80;3.07;;;;;;;;;;5105475;28;20261;-65
2021/09/09 12:11:18;;;;;;;4.33;3.17;;;;;;;;;;5103027;28;20211;-64
2021/09/09 12:13:46;;;;;;;3.50;2.90;;;;;;;;;;5109724;28;20223;-65
2021/09/09 12:16:16;;;;;;;3.37;3.03;;;;;;;;;;5106912;28;20218;-64
2021/09/09 12:18:44;;;;;;;3.73;3.30;;;;;;;;;;5098898;28;20197;-64
2021/09/09 12:21:13;;;;;;;20.07;6.30;;;;;;;;;;5097894;28;20573;-65
2021/09/09 12:26:37;;;;;;;4.23;3.63;;;;;;;;;;5154882;27;21166;-64
2021/09/09 12:29:15;;;;;;;3.33;2.90;;;;;;;;;;5135141;27;20216;-65
2021/09/09 12:31:43;;;;;;;3.33;3.03;;;;;;;;;;5132547;27;20202;-64
2021/09/09 12:34:12;;;;;;;7.03;3.23;;;;;;;;;;5135365;28;20217;-65
2021/09/09 12:36:41;;;;;;;4.43;3.00;;;;;;;;;;5133686;28;21373;-64
2021/09/09 12:39:09;;;;;;;3.20;2.90;;;;;;;;;;5125750;28;20206;-65
2021/09/09 12:41:38;;;;;;;3.43;3.13;;;;;;;;;;5132124;27;20796;-64
2021/09/09 12:44:12;;;;;;;6.40;3.60;;;;;;;;;;5130947;28;20223;-65
2021/09/09 12:46:42;;;;;;;3.40;3.10;;;;;;;;;;5131734;28;20233;-65
2021/09/09 12:49:12;;;;;;;3.70;3.17;;;;;;;;;;5123231;28;20199;-65
2021/09/09 12:51:42;;;;;;;3.60;3.30;;;;;;;;;;5132869;28;20237;-64
2021/09/09 12:54:10;;;;;;;3.93;3.53;;;;;;;;;;5133323;28;20233;-64
2021/09/09 12:56:44;;;;;;;4.23;3.63;;;;;;;;;;5132767;28;20741;-65
2021/09/09 12:59:13;;;;;;;4.33;3.43;;;;;;;;;;5129976;28;20247;-62
2021/09/09 13:01:41;;;;;;;4.63;4.00;;;;;;;;;;5127531;27;20209;-64
2021/09/09 13:04:09;;;;;;;4.43;3.57;;;;;;;;;;5126717;28;20303;-63
2021/09/09 13:06:37;;;;;;;5.70;3.60;;;;;;;;;;5132143;28;20229;-64
2021/09/09 13:09:05;;;;;;;5.30;4.10;;;;;;;;;;5133827;27;20199;-64
2021/09/09 13:11:33;;;;;;;8.07;4.70;;;;;;;;;;5132842;28;20301;-64
2021/09/09 13:14:03;;;;;;;4.63;4.13;;;;;;;;;;5128789;28;20222;-63
2021/09/09 13:16:31;;;;;;;5.90;4.40;;;;;;;;;;5129895;28;20206;-63
2021/09/09 13:18:59;;;;;;;7.80;4.60;;;;;;;;;;5132403;28;20210;-64
2021/09/09 13:21:28;;;;;;;7.97;4.57;;;;;;;;;;5130997;28;20209;-64
2021/09/09 13:23:56;;;;;;;7.53;5.20;;;;;;;;;;5126026;27;20287;-64
2021/09/09 13:26:24;;;;;;;6.30;4.37;;;;;;;;;;5134614;27;20235;-64
2021/09/09 13:28:54;;;;;;;7.07;4.47;;;;;;;;;;5133657;27;20204;-64
2021/09/09 13:31:24;;;;;;;5.03;4.53;;;;;;;;;;5131001;27;20200;-64
2021/09/09 13:33:54;;;;;;;6.60;5.23;;;;;;;;;;5132515;27;20223;-64
2021/09/09 13:36:22;;;;;;;5.13;4.60;;;;;;;;;;5113135;27;20803;-63
2021/09/09 13:38:49;;;;;;;8.10;5.63;;;;;;;;;;5110282;28;20656;-64
2021/09/09 13:41:17;;;;;;;7.03;4.37;;;;;;;;;;5117719;28;20202;-63
2021/09/09 13:43:45;;;;;;;8.07;5.30;;;;;;;;;;5111537;28;20227;-64
2021/09/09 13:46:13;;;;;;;5.30;4.80;;;;;;;;;;5117797;28;20223;-63
2021/09/09 13:48:43;;;;;;;5.53;4.30;;;;;;;;;;5113471;28;20204;-64
2021/09/09 13:51:11;;;;;;;5.33;4.83;;;;;;;;;;5114584;28;20286;-63
2021/09/09 13:53:39;;;;;;;5.97;5.37;;;;;;;;;;5102850;28;20204;-63
2021/09/09 13:56:07;;;;;;;5.60;4.73;;;;;;;;;;5107249;27;20201;-63
2021/09/09 13:58:39;;;;;;;6.13;5.30;;;;;;;;;;5124324;27;20281;-63
2021/09/09 14:01:08;;;;;;;6.97;5.17;;;;;;;;;;5120589;27;20249;-64
2021/09/09 14:03:37;;;;;;;5.50;5.00;;;;;;;;;;5117481;28;20247;-64
2021/09/09 14:06:07;;;;;;;5.93;5.30;;;;;;;;;;5119648;28;20227;-64
2021/09/09 14:08:35;;;;;;;7.70;4.70;;;;;;;;;;5119851;28;20258;-64
2021/09/09 14:11:03;;;;;;;7.43;5.13;;;;;;;;;;5119944;28;20261;-64
2021/09/09 14:13:31;;;;;;;7.00;4.70;;;;;;;;;;5119192;28;20251;-65
2021/09/09 14:16:00;;;;;;;5.17;4.67;;;;;;;;;;5118303;28;20593;-64
2021/09/09 14:18:30;;;;;;;5.83;4.87;;;;;;;;;;5119824;28;20214;-64
2021/09/09 14:20:58;;;;;;;7.83;5.33;;;;;;;;;;5119122;28;20554;-64
2021/09/09 14:23:28;;;;;;;8.23;4.67;;;;;;;;;;5119465;28;20581;-64
2021/09/09 14:25:56;;;;;;;6.17;5.57;;;;;;;;;;5118428;28;20605;-64
2021/09/09 14:28:24;;;;;;;4.83;4.43;;;;;;;;;;5119258;28;20221;-63
2021/09/09 14:30:52;;;;;;;6.00;4.83;;;;;;;;;;5118843;28;20209;-64
2021/09/09 14:33:20;;;;;;;7.60;4.33;;;;;;;;;;5117612;28;20670;-64
2021/09/09 14:35:48;;;;;;;5.67;5.17;;;;;;;;;;5118938;28;20284;-64
2021/09/09 14:38:16;;;;;;;8.70;4.90;;;;;;;;;;5119101;28;20207;-64
2021/09/09 14:40:46;;;;;;;6.00;5.10;;;;;;;;;;5120505;27;20282;-65
2021/09/09 14:43:14;;;;;;;6.50;4.47;;;;;;;;;;5125069;27;20207;-64
2021/09/09 14:45:42;;;;;;;6.80;4.67;;;;;;;;;;5127447;27;20223;-64
2021/09/09 14:48:10;;;;;;;5.30;4.70;;;;;;;;;;5124083;27;20209;-64
2021/09/09 14:50:38;;;;;;;8.77;5.60;;;;;;;;;;5118080;27;20203;-64
2021/09/09 14:53:07;;;;;;;7.57;4.60;;;;;;;;;;5125399;27;20202;-64